Impacts METAR Board
IDs:

KRYW - Lago Vista/Allen Arp, TX, US

Updated at: 0900 UTC 26 May 2019
Potential Impact None Slight Moderate High
Time 25/21Z 25/22Z 25/23Z 26/00Z 26/01Z 26/02Z 26/03Z 26/04Z 26/05Z 26/06Z 26/07Z 26/08Z 26/09Z
Temp86 86 85 83 80 78 77 75 73 73 73 72 72
Dewpt71 69 69 69 68 67 66 67 67 69 69 69 69
Altim30.01 30.00 29.99 29.98 29.99 29.99 30.01 30.02 30.03 30.04 30.03 30.03 30.03
VIS10 10 10 10 10 10 10 10 10 10 10 10 10
CIG36 -- -- -- -- -- -- -- -- 12 12 8 10
CoverOVCSCTSCTSCTSCTCLRCLRCLRCLROVCOVCOVCOVC
FltCatVFRVFRVFRVFRVFRVFRVFRVFRVFRMVFRMVFRIFRMVFR
WX--------------------------
WDir140150140140140140140140150160170150150
WSpd8 11 9 9 9 11 9 7 9 8 6 8 5
WGst-- 17 16 17 16 16 16 17 -- -- -- -- --
Raw hourly METARs
KRYW 252055Z AUTO 14008KT 10SM BKN036 BKN042 OVC085 30/22 A3001 RMK AO2 T03000216
KRYW 252155Z AUTO 15011G17KT 10SM SCT043 SCT050 30/21 A3000 RMK AO2 T02980205
KRYW 252255Z AUTO 14009G16KT 110V170 10SM SCT043 SCT060 SCT070 30/21 A2999 RMK AO2 T02950206
KRYW 252355Z AUTO 14009G17KT 110V170 10SM SCT041 28/20 A2998 RMK AO2 T02830204 10312 20276
KRYW 260055Z AUTO 14009G16KT 10SM SCT039 27/20 A2999 RMK AO2 T02690200
KRYW 260155Z AUTO 14011G16KT 10SM CLR 26/20 A2999 RMK AO2 T02550195
KRYW 260255Z AUTO 14009G16KT 10SM CLR 25/19 A3001 RMK AO2 T02480190
KRYW 260355Z AUTO 14007G17KT 10SM CLR 24/20 A3002 RMK AO2 T02410195
KRYW 260455Z AUTO 15009KT 10SM CLR 23/20 A3003 RMK AO2 T02300197
KRYW 260555Z AUTO 16008KT 10SM OVC012 23/21 A3004 RMK AO2 T02270205 10281 20227 403120225
KRYW 260655Z AUTO 17006KT 10SM OVC012 23/21 A3003 RMK AO2 T02250206
KRYW 260755Z AUTO 15008KT 110V190 10SM OVC008 22/21 A3003 RMK AO2 T02220208
KRYW 260855Z AUTO 15005KT 10SM OVC010 22/21 A3003 RMK AO2 T02220208